Weather at Ajdovščina Airfield

Public forecast

Using degrees Celsius for public forecast. Weather courtesy of forecast.io.

Closest aviation weather report (METAR) to Ajdovščina Airfield

Closest report is Trieste–Friuli Venezia Giulia Airport, 17.7 nm (32.8 km) WSW.

2024/05/25 17:20 (retrieved 40 minutes ago)

LIPQ 251720Z AUTO 23005KT 200V260 9999 SCT210/// 23/13 Q1015

Closest aviation forecast (TAF) to Ajdovščina Airfield

Closest forecast is Trieste–Friuli Venezia Giulia Airport, 17.7 nm (32.8 km) WSW.

2024/05/25 12:21 (retrieved 6 hours ago)

TAF LIPQ 251100Z 2512/2612 VRB05KT 9999 SCT040